44-я Арчинская

Карта отелей и гостиниц, располагающихся рядом с аэропортом 44-я Арчинская :

44-я Арчинская Томская область 57° 27' 45.5184" N, 78° 26' 3.0696" E
44-я Арчинская Томская область 57° 27' 45.5184" N, 78° 26' 3.0696" E
Код аэродрома ИКАО
HB6J
Код аэродрома RU
ХБ6Й
Координаты
N57.46264° E078.43419°
Превышение над уровнем моря
127
Основная полоса
02/20
Курс магнитный
020,5/200,5
Длина основной ВПП
25
Ширина основной ВПП
25
Покрытие основной ВПП
Твёрдое (железобетон)
Освещение ВПП
Нет
Тип: 
Вертодром
Класс аэродрома: 
Принадлежность: 
ГА
Статус: 
Действующий
Сайт: 
E-mail аэродрома: 
Страна: 
Россия
Регион: 
Томская область
Город: 
Дополнительная информация: 
Владелец ПП: нет данных. Подходы открытые.

Найти трансфер

С помощью этой формы Вы можете найти трансфер из аэропорта 44-я Арчинская в город, аэропорт или вокзал:

Карта места

Javascript is required to view this map.

Погода в аэропортах:

Авиационная погода в Братске

Регион: 
Погода METAR: 
UIBB 281200Z 31004MPS 280V340 9999 -SHSN SCT033CB M00/M00 Q1016 R30/290150 NOSIG RMK QFE719/0959
Время наблюдения
2021-09-28T12:00:00Z
Температура C
0.0
Точка росы
0.0
Направление ветра
310
Скорость ветра (узлы)
8
Метео видимость
6.21
Явления погоды
-SHSN
Условия полета
VFR
Аэропорт подробнее: 

Авиационная погода в Трабзоне

Регион: 
Погода METAR: 
LTCG 281150Z 02005KT 340V060 9000 -SHRA BKN028 20/15 Q1018 NOSIG RMK RWY29 34004KT 300V010
Время наблюдения
2021-09-28T11:50:00Z
Температура C
20.0
Точка росы
15.0
Направление ветра
20
Скорость ветра (узлы)
5
Метео видимость
5.59
Явления погоды
-SHRA
Условия полета
MVFR

Авиационная погода в Волгограде

Регион: 
Погода METAR: 
URWW 281200Z 07005MPS 9999 -SHRA BKN037CB 12/08 Q1020 R06/010070 TEMPO 1200 TSRAGR BKN004 SCT020CB
Время наблюдения
2021-09-28T12:00:00Z
Температура C
12.0
Точка росы
8.0
Направление ветра
70
Скорость ветра (узлы)
10
Метео видимость
6.21
Явления погоды
-SHRA
Условия полета
VFR
Аэропорт подробнее: 

Авиационная погода в Кокшетау

Регион: 
Погода METAR: 
UACK 281300Z 09010MPS 7000 -DZ OVC006 03/02 Q1010 R02/250250 NOSIG RMK QBB190 QFE734/0978
Время наблюдения
2021-09-28T13:00:00Z
Температура C
3.0
Точка росы
2.0
Направление ветра
90
Скорость ветра (узлы)
19
Метео видимость
4.35
Явления погоды
-DZ
Условия полета
IFR
Аэропорт подробнее: